createdAt,value
2017-12-16T00:01:56.925Z,2.50
2017-12-16T00:04:24.376Z,2.40
2017-12-16T00:06:51.841Z,2.40
2017-12-16T00:09:19.426Z,2.40
2017-12-16T00:11:46.853Z,2.30
2017-12-16T00:14:14.321Z,2.20
2017-12-16T00:16:41.746Z,2.10
2017-12-16T00:19:09.961Z,2.10
2017-12-16T00:21:37.436Z,2.10
2017-12-16T00:24:04.869Z,2.10
2017-12-16T00:26:32.314Z,2.10
2017-12-16T00:29:00.537Z,2.20
2017-12-16T00:31:27.968Z,2.20
2017-12-16T00:33:55.445Z,2.20
2017-12-16T00:36:22.902Z,2.20
2017-12-16T00:38:50.321Z,2.20
2017-12-16T00:41:18.517Z,2.30
2017-12-16T00:43:46.729Z,2.30
2017-12-16T00:46:14.158Z,2.30
2017-12-16T00:48:41.664Z,2.30
2017-12-16T00:51:09.085Z,2.30
2017-12-16T00:53:36.506Z,2.30
2017-12-16T00:56:03.941Z,2.30
2017-12-16T00:58:31.365Z,2.30
2017-12-16T01:00:58.853Z,2.30
2017-12-16T01:03:26.317Z,2.30
2017-12-16T01:05:53.777Z,2.30
2017-12-16T01:08:21.245Z,2.30
2017-12-16T01:10:48.677Z,2.30
2017-12-16T01:13:16.167Z,2.30
2017-12-16T01:15:43.590Z,2.30
2017-12-16T01:18:11.085Z,2.20
2017-12-16T01:20:38.549Z,2.20
2017-12-16T01:23:06.010Z,2.30
2017-12-16T01:25:33.468Z,2.30
2017-12-16T01:28:00.890Z,2.30
2017-12-16T01:30:29.109Z,2.40
2017-12-16T01:32:56.573Z,2.40
2017-12-16T01:35:35.625Z,2.40
2017-12-16T01:38:15.087Z,2.30
2017-12-16T01:40:43.310Z,2.20
2017-12-16T01:43:10.737Z,2.20
2017-12-16T01:45:38.945Z,2.20
2017-12-16T01:48:06.379Z,2.20
2017-12-16T01:50:33.857Z,2.30
2017-12-16T01:53:01.254Z,2.40
2017-12-16T01:55:28.793Z,2.50
2017-12-16T01:57:56.213Z,2.60
2017-12-16T02:00:24.429Z,2.60
2017-12-16T02:02:51.885Z,2.60
2017-12-16T02:05:19.310Z,2.60
2017-12-16T02:07:47.512Z,2.60
2017-12-16T02:10:15.011Z,2.60
2017-12-16T02:12:42.429Z,2.60
2017-12-16T02:15:09.857Z,2.50
2017-12-16T02:17:37.373Z,2.40
2017-12-16T02:20:04.797Z,2.30
2017-12-16T02:22:32.995Z,2.20
2017-12-16T02:25:00.422Z,2.20
2017-12-16T02:27:27.933Z,2.20
2017-12-16T02:29:55.401Z,2.20
2017-12-16T02:32:22.830Z,2.20
2017-12-16T02:34:51.014Z,2.30
2017-12-16T02:37:18.449Z,2.30
2017-12-16T02:39:46.673Z,2.40
2017-12-16T02:42:14.102Z,2.40
2017-12-16T02:44:42.289Z,2.50
2017-12-16T02:47:09.785Z,2.50
2017-12-16T02:49:37.206Z,2.50
2017-12-16T02:52:05.399Z,2.50
2017-12-16T02:54:32.877Z,2.50
2017-12-16T02:57:00.311Z,2.60
2017-12-16T02:59:27.797Z,2.50
2017-12-16T03:01:55.353Z,2.60
2017-12-16T03:04:22.822Z,2.60
2017-12-16T03:06:50.245Z,2.60
2017-12-16T03:09:18.434Z,2.70
2017-12-16T03:11:46.644Z,2.70
2017-12-16T03:14:14.073Z,2.60
2017-12-16T03:16:41.510Z,2.70
2017-12-16T03:19:09.026Z,2.70
2017-12-16T03:21:36.452Z,2.70
2017-12-16T03:24:04.637Z,2.80
2017-12-16T03:26:32.065Z,2.80
2017-12-16T03:29:00.301Z,2.90
2017-12-16T03:31:27.719Z,2.90
2017-12-16T03:33:55.952Z,3.00
2017-12-16T03:36:23.457Z,3.00
2017-12-16T03:38:51.645Z,3.00
2017-12-16T03:41:19.859Z,3.10
2017-12-16T03:43:47.286Z,3.10
2017-12-16T03:46:15.501Z,3.20
2017-12-16T03:48:42.941Z,3.20
2017-12-16T03:51:10.362Z,3.20
2017-12-16T03:53:37.789Z,3.30
2017-12-16T03:56:05.213Z,3.30
2017-12-16T03:58:32.696Z,3.30
2017-12-16T04:01:00.165Z,3.40
2017-12-16T04:03:27.602Z,3.40
2017-12-16T04:05:55.084Z,3.40
2017-12-16T04:08:22.510Z,3.40
2017-12-16T04:10:50.696Z,3.50
2017-12-16T04:13:18.129Z,3.40
2017-12-16T04:15:45.554Z,3.50
2017-12-16T04:18:13.013Z,3.50
2017-12-16T04:20:40.469Z,3.60
2017-12-16T04:23:07.929Z,3.60
2017-12-16T04:25:35.350Z,3.60
2017-12-16T04:28:03.573Z,3.50
2017-12-16T04:30:31.037Z,3.50
2017-12-16T04:32:58.498Z,3.50
2017-12-16T04:35:25.914Z,3.50
2017-12-16T04:37:54.105Z,3.50
2017-12-16T04:40:21.525Z,3.50
2017-12-16T04:42:48.949Z,3.50
2017-12-16T04:45:16.409Z,3.50
2017-12-16T04:47:43.873Z,3.50
2017-12-16T04:50:11.300Z,3.50
2017-12-16T04:52:39.503Z,3.50
2017-12-16T04:55:06.945Z,3.50
2017-12-16T04:57:34.438Z,3.50
2017-12-16T05:00:01.861Z,3.50
2017-12-16T05:02:30.074Z,3.60
2017-12-16T05:04:57.505Z,3.60
2017-12-16T05:07:25.809Z,3.60
2017-12-16T05:09:53.241Z,3.60
2017-12-16T05:12:21.457Z,3.60
2017-12-16T05:14:48.882Z,3.60
2017-12-16T05:17:17.079Z,3.60
2017-12-16T05:19:44.497Z,3.60
2017-12-16T05:22:11.921Z,3.60
2017-12-16T05:24:39.457Z,3.60
2017-12-16T05:27:06.936Z,3.60
2017-12-16T05:29:34.405Z,3.50
2017-12-16T05:32:01.845Z,3.40
2017-12-16T05:34:30.019Z,3.40
2017-12-16T05:36:57.498Z,3.30
2017-12-16T05:39:24.954Z,3.30
2017-12-16T05:41:52.421Z,3.30
2017-12-16T05:44:19.880Z,3.40
2017-12-16T05:46:47.310Z,3.30
2017-12-16T05:49:15.517Z,3.30
2017-12-16T05:51:42.982Z,3.30
2017-12-16T05:54:10.445Z,3.30
2017-12-16T05:56:37.902Z,3.20
2017-12-16T05:59:05.309Z,3.10
2017-12-16T06:01:33.541Z,2.90
2017-12-16T06:04:01.042Z,2.90
2017-12-16T06:06:28.575Z,2.80
2017-12-16T06:08:56.025Z,2.80
2017-12-16T06:11:23.489Z,2.70
2017-12-16T06:13:50.933Z,2.80
2017-12-16T06:16:18.419Z,2.80
2017-12-16T06:18:45.885Z,2.80
2017-12-16T06:21:13.314Z,2.90
2017-12-16T06:23:40.741Z,2.90
2017-12-16T06:26:08.170Z,2.90
2017-12-16T06:28:35.605Z,2.90
2017-12-16T06:31:03.028Z,2.80
2017-12-16T06:33:31.270Z,2.80
2017-12-16T06:35:58.696Z,2.80
2017-12-16T06:38:26.149Z,2.80
2017-12-16T06:40:53.641Z,2.70
2017-12-16T06:43:21.194Z,2.70
2017-12-16T06:45:48.597Z,2.70
2017-12-16T06:48:16.062Z,2.60
2017-12-16T06:50:43.488Z,2.60
2017-12-16T06:53:10.954Z,2.60
2017-12-16T06:55:38.379Z,2.50
2017-12-16T06:58:05.822Z,2.40
2017-12-16T07:00:33.329Z,2.50
2017-12-16T07:03:00.796Z,2.50
2017-12-16T07:05:28.254Z,2.50
2017-12-16T07:07:56.549Z,2.50
2017-12-16T07:10:24.086Z,2.50
2017-12-16T07:12:51.609Z,2.60
2017-12-16T07:15:19.809Z,2.70
2017-12-16T07:17:48.037Z,2.70
2017-12-16T07:20:15.496Z,2.70
2017-12-16T07:22:42.954Z,2.70
2017-12-16T07:25:10.377Z,2.70
2017-12-16T07:27:37.866Z,2.70
2017-12-16T07:30:05.301Z,2.70
2017-12-16T07:32:32.786Z,2.60
2017-12-16T07:35:00.384Z,2.60
2017-12-16T07:37:27.814Z,2.60
2017-12-16T07:39:55.249Z,2.50
2017-12-16T07:42:22.806Z,2.60
2017-12-16T07:44:51.005Z,2.60
2017-12-16T07:47:18.429Z,2.50
2017-12-16T07:49:46.646Z,2.60
2017-12-16T07:52:14.069Z,2.50
2017-12-16T07:54:42.266Z,2.50
2017-12-16T07:57:09.687Z,2.50
2017-12-16T07:59:37.213Z,2.40
2017-12-16T08:02:04.717Z,2.40
2017-12-16T08:04:32.171Z,2.40
2017-12-16T08:06:59.595Z,2.40
2017-12-16T08:09:27.064Z,2.40
2017-12-16T08:11:54.481Z,2.40
2017-12-16T08:14:22.698Z,2.50
2017-12-16T08:16:50.158Z,2.50
2017-12-16T08:19:17.626Z,2.60
2017-12-16T08:21:45.053Z,2.70
2017-12-16T08:24:12.541Z,2.80
2017-12-16T08:26:39.992Z,2.90
2017-12-16T08:29:07.421Z,2.90
2017-12-16T08:31:35.645Z,3.00
2017-12-16T08:34:03.077Z,2.90
2017-12-16T08:36:30.561Z,2.90
2017-12-16T08:38:57.997Z,2.90
2017-12-16T08:41:25.481Z,2.80
2017-12-16T08:43:52.984Z,2.80
2017-12-16T08:46:20.378Z,2.80
2017-12-16T08:48:48.691Z,2.80
2017-12-16T08:51:16.137Z,2.80
2017-12-16T08:53:43.564Z,2.90
2017-12-16T08:56:11.084Z,3.00
2017-12-16T08:58:38.537Z,3.10
2017-12-16T09:01:06.020Z,3.20
2017-12-16T09:03:33.608Z,3.40
2017-12-16T09:06:02.561Z,4.00
2017-12-16T09:08:29.990Z,4.00
2017-12-16T09:10:57.485Z,4.20
2017-12-16T09:13:24.915Z,4.30
2017-12-16T09:15:52.333Z,4.40
2017-12-16T09:18:20.577Z,4.50
2017-12-16T09:20:48.014Z,4.40
2017-12-16T09:23:15.509Z,4.70
2017-12-16T09:25:42.948Z,4.70
2017-12-16T09:28:11.124Z,4.70
2017-12-16T09:30:38.563Z,4.70
2017-12-16T09:33:06.750Z,4.60
2017-12-16T09:35:34.189Z,4.60
2017-12-16T09:38:02.381Z,4.60
2017-12-16T09:40:30.573Z,4.50
2017-12-16T09:42:58.001Z,4.50
2017-12-16T09:45:25.549Z,4.50
2017-12-16T09:47:52.967Z,4.50
2017-12-16T09:50:20.390Z,4.50
2017-12-16T09:52:48.573Z,4.30
2017-12-16T09:55:16.801Z,4.20
2017-12-16T09:57:44.217Z,4.20
2017-12-16T10:00:12.447Z,4.30
2017-12-16T10:02:39.897Z,4.20
2017-12-16T10:05:07.473Z,4.30
2017-12-16T10:07:34.935Z,4.40
2017-12-16T10:10:02.341Z,4.40
2017-12-16T10:12:30.541Z,4.50
2017-12-16T10:14:57.956Z,4.60
2017-12-16T10:17:25.382Z,4.50
2017-12-16T10:19:52.804Z,4.50
2017-12-16T10:22:20.993Z,4.60
2017-12-16T10:24:48.469Z,4.60
2017-12-16T10:27:15.938Z,4.80
2017-12-16T10:29:43.360Z,5.10
2017-12-16T10:32:11.581Z,5.80
2017-12-16T10:34:39.021Z,5.80
2017-12-16T10:37:06.509Z,6.00
2017-12-16T10:39:33.962Z,6.10
2017-12-16T10:42:01.389Z,6.10
2017-12-16T10:44:29.578Z,5.90
2017-12-16T10:46:57.001Z,5.80
2017-12-16T10:49:24.442Z,5.80
2017-12-16T10:51:51.856Z,5.70
2017-12-16T10:54:19.345Z,5.60
2017-12-16T10:56:46.774Z,5.60
2017-12-16T10:59:14.985Z,5.80
2017-12-16T11:01:42.422Z,5.80
2017-12-16T11:04:09.933Z,6.00
2017-12-16T11:06:37.354Z,6.30
2017-12-16T11:09:04.794Z,6.50
2017-12-16T11:11:32.982Z,6.90
2017-12-16T11:14:00.405Z,6.80
2017-12-16T11:16:28.695Z,6.90
2017-12-16T11:18:56.111Z,6.90
2017-12-16T11:21:23.537Z,6.80
2017-12-16T11:23:51.721Z,6.40
2017-12-16T11:26:19.201Z,6.40
2017-12-16T11:28:46.669Z,6.30
2017-12-16T11:31:14.133Z,6.30
2017-12-16T11:33:41.558Z,6.20
2017-12-16T11:36:09.765Z,5.90
2017-12-16T11:38:37.248Z,5.90
2017-12-16T11:41:04.695Z,5.80
2017-12-16T11:43:32.161Z,5.80
2017-12-16T11:45:59.617Z,5.80
2017-12-16T11:48:27.073Z,5.70
2017-12-16T11:50:54.544Z,5.70
2017-12-16T11:53:22.002Z,5.60
2017-12-16T11:55:49.461Z,5.60
2017-12-16T11:58:17.013Z,5.60
2017-12-16T12:00:45.194Z,5.60
2017-12-16T12:03:12.612Z,5.60
2017-12-16T12:05:40.025Z,5.70
2017-12-16T12:08:07.457Z,5.90
2017-12-16T12:10:35.686Z,7.00
2017-12-16T12:13:03.122Z,7.00
2017-12-16T12:15:30.586Z,7.20
2017-12-16T12:17:58.018Z,7.30
2017-12-16T12:20:26.230Z,7.50
2017-12-16T12:22:53.688Z,7.50
2017-12-16T12:25:21.166Z,7.50
2017-12-16T12:27:48.580Z,7.40
2017-12-16T12:30:16.075Z,7.40
2017-12-16T12:32:43.531Z,7.30
2017-12-16T12:35:10.992Z,7.20
2017-12-16T12:37:38.457Z,7.00
2017-12-16T12:40:05.879Z,6.90
2017-12-16T12:42:34.093Z,6.50
2017-12-16T12:45:01.513Z,6.50
2017-12-16T12:47:29.732Z,6.30
2017-12-16T12:49:57.193Z,6.30
2017-12-16T12:52:24.620Z,6.20
2017-12-16T12:54:52.922Z,6.20
2017-12-16T12:57:20.329Z,6.20
2017-12-16T12:59:47.761Z,6.10
2017-12-16T13:02:15.219Z,6.00
2017-12-16T13:04:42.673Z,5.90
2017-12-16T13:07:10.166Z,6.00
2017-12-16T13:09:37.603Z,5.90
2017-12-16T13:12:05.025Z,5.90
2017-12-16T13:14:33.213Z,5.90
2017-12-16T13:17:00.645Z,5.80
2017-12-16T13:19:28.166Z,5.80
2017-12-16T13:21:55.632Z,5.80
2017-12-16T13:24:23.041Z,5.80
2017-12-16T13:26:51.266Z,5.80
2017-12-16T13:29:18.754Z,5.80
2017-12-16T13:31:46.186Z,5.80
2017-12-16T13:34:13.641Z,5.70
2017-12-16T13:36:41.106Z,5.80
2017-12-16T13:39:08.562Z,5.80
2017-12-16T13:41:36.028Z,5.90
2017-12-16T13:44:03.465Z,6.00
2017-12-16T13:46:30.882Z,6.10
2017-12-16T13:48:58.309Z,6.10
2017-12-16T13:51:25.798Z,6.10
2017-12-16T13:53:53.221Z,6.10
2017-12-16T13:56:20.713Z,6.20
2017-12-16T13:58:48.143Z,6.20
2017-12-16T14:01:15.558Z,6.00
2017-12-16T14:03:42.982Z,5.90
2017-12-16T14:06:10.404Z,5.90
2017-12-16T14:08:38.613Z,5.70
2017-12-16T14:11:06.086Z,5.70
2017-12-16T14:13:33.516Z,5.70
2017-12-16T14:16:01.014Z,5.70
2017-12-16T14:18:28.466Z,5.80
2017-12-16T14:20:55.918Z,5.80
2017-12-16T14:23:23.398Z,5.80
2017-12-16T14:25:50.802Z,5.80
2017-12-16T14:28:18.990Z,5.70
2017-12-16T14:30:46.405Z,5.70
2017-12-16T14:33:13.833Z,5.70
2017-12-16T14:35:41.252Z,5.60
2017-12-16T14:38:08.676Z,5.50
2017-12-16T14:40:36.093Z,5.50
2017-12-16T14:43:03.581Z,5.50
2017-12-16T14:45:31.057Z,5.50
2017-12-16T14:47:58.472Z,5.40
2017-12-16T14:50:26.686Z,5.40
2017-12-16T14:52:54.136Z,5.30
2017-12-16T14:55:22.298Z,5.30
2017-12-16T14:57:49.739Z,5.30
2017-12-16T15:00:17.966Z,5.30
2017-12-16T15:02:45.427Z,5.20
2017-12-16T15:05:12.895Z,5.30
2017-12-16T15:07:40.309Z,5.20
2017-12-16T15:10:08.510Z,5.00
2017-12-16T15:12:35.941Z,5.00
2017-12-16T15:15:04.121Z,4.90
2017-12-16T15:17:32.314Z,4.90
2017-12-16T15:19:59.812Z,4.90
2017-12-16T15:22:27.233Z,4.90
2017-12-16T15:24:54.733Z,4.90
2017-12-16T15:27:22.163Z,4.90
2017-12-16T15:29:49.577Z,4.90
2017-12-16T15:32:17.049Z,4.90
2017-12-16T15:34:44.465Z,4.90
2017-12-16T15:37:11.949Z,5.00
2017-12-16T15:39:39.482Z,5.00
2017-12-16T15:42:07.686Z,4.80
2017-12-16T15:44:35.142Z,4.80
2017-12-16T15:47:02.550Z,4.80
2017-12-16T15:49:30.746Z,4.80
2017-12-16T15:51:58.164Z,4.80
2017-12-16T15:54:25.710Z,4.80
2017-12-16T15:56:53.125Z,4.70
2017-12-16T15:59:20.564Z,4.70
2017-12-16T16:01:48.077Z,4.60
2017-12-16T16:04:15.639Z,4.50
2017-12-16T16:06:43.113Z,4.40
2017-12-16T16:09:10.538Z,4.30
2017-12-16T16:11:38.069Z,4.20
2017-12-16T16:14:05.514Z,4.20
2017-12-16T16:16:32.927Z,4.20
2017-12-16T16:19:00.413Z,4.30
2017-12-16T16:21:27.840Z,4.30
2017-12-16T16:23:56.141Z,4.40
2017-12-16T16:26:23.553Z,4.40
2017-12-16T16:28:51.079Z,4.50
2017-12-16T16:31:18.549Z,4.50
2017-12-16T16:33:45.998Z,4.50
2017-12-16T16:36:13.420Z,4.40
2017-12-16T16:38:41.637Z,4.40
2017-12-16T16:41:13.862Z,4.40
2017-12-16T16:43:41.377Z,4.30
2017-12-16T16:46:08.795Z,4.30
2017-12-16T16:48:36.991Z,4.30
2017-12-16T16:51:04.487Z,4.30
2017-12-16T16:53:31.901Z,4.20
2017-12-16T16:55:59.446Z,4.20
2017-12-16T16:58:27.666Z,4.20
2017-12-16T17:00:55.141Z,4.20
2017-12-16T17:03:22.567Z,4.20
2017-12-16T17:05:49.986Z,4.30
2017-12-16T17:08:17.522Z,4.30
2017-12-16T17:10:44.978Z,4.40
2017-12-16T17:13:12.401Z,4.40
2017-12-16T17:15:40.630Z,4.30
2017-12-16T17:18:08.078Z,4.30
2017-12-16T17:20:35.505Z,4.20
2017-12-16T17:23:03.726Z,4.00
2017-12-16T17:25:31.270Z,4.00
2017-12-16T17:27:58.740Z,3.90
2017-12-16T17:30:26.169Z,3.90
2017-12-16T17:32:54.353Z,3.70
2017-12-16T17:35:21.779Z,3.70
2017-12-16T17:37:49.301Z,3.80
2017-12-16T17:40:16.753Z,3.70
2017-12-16T17:42:44.950Z,3.70
2017-12-16T17:45:12.377Z,3.70
2017-12-16T17:47:39.794Z,3.60
2017-12-16T17:50:07.224Z,3.50
2017-12-16T17:52:34.638Z,3.40
2017-12-16T17:55:02.917Z,3.30
2017-12-16T17:57:31.235Z,3.30
2017-12-16T17:59:58.646Z,3.30
2017-12-16T18:02:26.090Z,3.30
2017-12-16T18:04:53.529Z,3.40
2017-12-16T18:07:20.934Z,3.40
2017-12-16T18:09:48.366Z,3.50
2017-12-16T18:12:15.784Z,3.50
2017-12-16T18:14:43.209Z,3.50
2017-12-16T18:17:10.625Z,3.50
2017-12-16T18:19:38.058Z,3.40
2017-12-16T18:22:06.269Z,3.30
2017-12-16T18:24:33.729Z,3.30
2017-12-16T18:27:01.149Z,3.30
2017-12-16T18:29:29.370Z,3.30
2017-12-16T18:31:56.796Z,3.30
2017-12-16T18:34:24.984Z,3.40
2017-12-16T18:36:52.466Z,3.30
2017-12-16T18:39:20.021Z,3.40
2017-12-16T18:41:48.189Z,3.40
2017-12-16T18:44:15.614Z,3.30
2017-12-16T18:46:43.130Z,3.40
2017-12-16T18:49:10.584Z,3.40
2017-12-16T18:51:38.745Z,3.50
2017-12-16T18:54:06.233Z,3.50
2017-12-16T18:56:33.707Z,3.50
2017-12-16T18:59:01.182Z,3.50
2017-12-16T19:01:28.851Z,3.50
2017-12-16T19:03:56.333Z,3.50
2017-12-16T19:06:24.522Z,3.40
2017-12-16T19:08:52.716Z,3.30
2017-12-16T19:11:20.294Z,3.30
2017-12-16T19:13:47.693Z,3.30
2017-12-16T19:16:15.249Z,3.20
2017-12-16T19:18:42.684Z,3.10
2017-12-16T19:21:10.098Z,3.10
2017-12-16T19:23:37.536Z,3.00
2017-12-16T19:26:05.214Z,3.00
2017-12-16T19:28:32.737Z,2.90
2017-12-16T19:31:00.209Z,2.80
2017-12-16T19:33:27.666Z,2.80
2017-12-16T19:35:55.111Z,2.70
2017-12-16T19:38:22.510Z,2.70
2017-12-16T19:40:49.934Z,2.70
2017-12-16T19:43:17.393Z,2.60
2017-12-16T19:45:44.958Z,2.60
2017-12-16T19:48:13.160Z,2.70
2017-12-16T19:50:40.602Z,2.60
2017-12-16T19:53:08.031Z,2.70
2017-12-16T19:55:36.231Z,2.80
2017-12-16T19:58:03.658Z,2.80
2017-12-16T20:00:31.978Z,2.90
2017-12-16T20:02:59.498Z,2.90
2017-12-16T20:05:27.018Z,3.00
2017-12-16T20:07:54.516Z,3.00
2017-12-16T20:10:21.936Z,3.10
2017-12-16T20:12:49.353Z,3.10
2017-12-16T20:15:17.558Z,3.20
2017-12-16T20:17:45.049Z,3.10
2017-12-16T20:20:12.473Z,3.10
2017-12-16T20:22:39.902Z,3.10
2017-12-16T20:25:07.423Z,3.10
2017-12-16T20:27:34.869Z,3.20
2017-12-16T20:30:03.042Z,3.30
2017-12-16T20:32:30.544Z,3.30
2017-12-16T20:34:57.972Z,3.30
2017-12-16T20:37:25.441Z,3.30
2017-12-16T20:39:52.901Z,3.30
2017-12-16T20:42:20.317Z,3.30
2017-12-16T20:44:48.635Z,3.30
2017-12-16T20:47:16.110Z,3.30
2017-12-16T20:49:43.573Z,3.30
2017-12-16T20:52:10.993Z,3.30
2017-12-16T20:54:39.184Z,3.30
2017-12-16T20:57:06.673Z,3.20
2017-12-16T20:59:34.129Z,3.20
2017-12-16T21:02:01.566Z,3.20
2017-12-16T21:04:28.982Z,3.20
2017-12-16T21:06:56.410Z,3.30
2017-12-16T21:09:23.886Z,3.30
2017-12-16T21:11:51.313Z,3.40
2017-12-16T21:14:18.797Z,3.40
2017-12-16T21:16:46.349Z,3.40
2017-12-16T21:19:13.765Z,3.40
2017-12-16T21:21:41.968Z,3.50
2017-12-16T21:24:10.148Z,3.40
2017-12-16T21:26:37.729Z,3.40
2017-12-16T21:29:05.890Z,3.40
2017-12-16T21:31:33.409Z,3.40
2017-12-16T21:34:00.947Z,3.40
2017-12-16T21:36:28.394Z,3.40
2017-12-16T21:38:55.865Z,3.40
2017-12-16T21:41:23.344Z,3.40
2017-12-16T21:43:50.793Z,3.40
2017-12-16T21:46:18.248Z,3.50
2017-12-16T21:48:45.669Z,3.50
2017-12-16T21:51:13.897Z,3.50
2017-12-16T21:53:41.349Z,3.50
2017-12-16T21:56:08.807Z,3.50
2017-12-16T21:58:36.221Z,3.40
2017-12-16T22:01:04.445Z,3.40
2017-12-16T22:03:32.108Z,3.40
2017-12-16T22:05:59.577Z,3.40
2017-12-16T22:08:27.019Z,3.40
2017-12-16T22:10:54.443Z,3.40
2017-12-16T22:13:21.966Z,3.40
2017-12-16T22:15:49.455Z,3.40
2017-12-16T22:18:16.917Z,3.40
2017-12-16T22:20:44.445Z,3.40
2017-12-16T22:23:11.862Z,3.50
2017-12-16T22:25:40.050Z,3.50
2017-12-16T22:28:08.233Z,3.50
2017-12-16T22:30:35.738Z,3.50
2017-12-16T22:33:03.153Z,3.50
2017-12-16T22:35:31.366Z,3.50
2017-12-16T22:37:58.801Z,3.40
2017-12-16T22:40:26.293Z,3.50
2017-12-16T22:42:53.749Z,3.50
2017-12-16T22:45:21.215Z,3.40
2017-12-16T22:47:48.677Z,3.50
2017-12-16T22:50:16.133Z,3.50
2017-12-16T22:52:43.630Z,3.50
2017-12-16T22:55:11.021Z,3.50
2017-12-16T22:57:39.218Z,3.50
2017-12-16T23:00:06.693Z,3.50
2017-12-16T23:02:34.122Z,3.50
2017-12-16T23:05:02.305Z,3.50
2017-12-16T23:07:29.793Z,3.50
2017-12-16T23:09:57.211Z,3.50
2017-12-16T23:12:25.439Z,3.60
2017-12-16T23:14:52.859Z,3.60
2017-12-16T23:17:21.062Z,3.60
2017-12-16T23:19:48.465Z,3.60
2017-12-16T23:22:15.994Z,3.60
2017-12-16T23:24:43.448Z,3.60
2017-12-16T23:27:10.864Z,3.60
2017-12-16T23:29:38.277Z,3.60
2017-12-16T23:32:05.701Z,3.50
2017-12-16T23:34:33.894Z,3.40
2017-12-16T23:37:01.321Z,3.50
2017-12-16T23:39:28.737Z,3.40
2017-12-16T23:41:56.196Z,3.40
2017-12-16T23:44:23.668Z,3.40
2017-12-16T23:46:51.119Z,3.50
2017-12-16T23:49:18.533Z,3.40
2017-12-16T23:51:46.726Z,3.50
2017-12-16T23:54:14.965Z,3.50
2017-12-16T23:56:42.429Z,3.50
2017-12-16T23:59:11.366Z,3.50
